sensor_id;sensor_type;location;lat;lon;timestamp;P1;durP1;ratioP1;P2;durP2;ratioP2
49828;SDS011;35723;51.194;5.112;2022-12-29T00:01:39;5.93;;;2.80;;
49828;SDS011;35723;51.194;5.112;2022-12-29T00:04:04;6.43;;;2.72;;
49828;SDS011;35723;51.194;5.112;2022-12-29T00:06:31;6.03;;;2.60;;
49828;SDS011;35723;51.194;5.112;2022-12-29T00:08:56;5.80;;;2.60;;
49828;SDS011;35723;51.194;5.112;2022-12-29T00:11:23;6.40;;;2.60;;
49828;SDS011;35723;51.194;5.112;2022-12-29T00:13:50;6.60;;;2.50;;
49828;SDS011;35723;51.194;5.112;2022-12-29T00:16:35;3.88;;;2.10;;
49828;SDS011;35723;51.194;5.112;2022-12-29T00:19:02;2.70;;;1.95;;
49828;SDS011;35723;51.194;5.112;2022-12-29T00:21:29;6.93;;;2.10;;
49828;SDS011;35723;51.194;5.112;2022-12-29T00:24:19;3.97;;;2.00;;
49828;SDS011;35723;51.194;5.112;2022-12-29T00:27:04;6.15;;;1.73;;
49828;SDS011;35723;51.194;5.112;2022-12-29T00:29:54;5.93;;;2.00;;
49828;SDS011;35723;51.194;5.112;2022-12-29T00:32:38;3.15;;;1.90;;
49828;SDS011;35723;51.194;5.112;2022-12-29T00:35:25;4.75;;;1.83;;
49828;SDS011;35723;51.194;5.112;2022-12-29T00:37:57;3.10;;;1.70;;
49828;SDS011;35723;51.194;5.112;2022-12-29T00:40:45;3.13;;;1.52;;
49828;SDS011;35723;51.194;5.112;2022-12-29T00:43:29;3.67;;;2.00;;
49828;SDS011;35723;51.194;5.112;2022-12-29T00:46:13;3.25;;;1.65;;
49828;SDS011;35723;51.194;5.112;2022-12-29T00:48:38;4.68;;;1.65;;
49828;SDS011;35723;51.194;5.112;2022-12-29T00:51:22;4.38;;;1.70;;
49828;SDS011;35723;51.194;5.112;2022-12-29T00:53:48;3.20;;;1.60;;
49828;SDS011;35723;51.194;5.112;2022-12-29T00:56:14;3.85;;;1.38;;
49828;SDS011;35723;51.194;5.112;2022-12-29T00:58:40;3.00;;;1.30;;
49828;SDS011;35723;51.194;5.112;2022-12-29T01:01:06;5.65;;;1.48;;
49828;SDS011;35723;51.194;5.112;2022-12-29T01:03:33;3.15;;;1.45;;
49828;SDS011;35723;51.194;5.112;2022-12-29T01:06:01;3.50;;;1.30;;
49828;SDS011;35723;51.194;5.112;2022-12-29T01:08:28;3.33;;;1.27;;
49828;SDS011;35723;51.194;5.112;2022-12-29T01:10:57;7.18;;;1.40;;
49828;SDS011;35723;51.194;5.112;2022-12-29T01:13:24;3.85;;;1.20;;
49828;SDS011;35723;51.194;5.112;2022-12-29T01:15:50;6.88;;;1.45;;
49828;SDS011;35723;51.194;5.112;2022-12-29T01:18:17;4.22;;;1.20;;
49828;SDS011;35723;51.194;5.112;2022-12-29T01:20:42;5.82;;;1.38;;
49828;SDS011;35723;51.194;5.112;2022-12-29T01:23:08;3.05;;;1.10;;
49828;SDS011;35723;51.194;5.112;2022-12-29T01:25:34;4.78;;;1.30;;
49828;SDS011;35723;51.194;5.112;2022-12-29T01:27:59;6.03;;;1.23;;
49828;SDS011;35723;51.194;5.112;2022-12-29T01:30:25;4.18;;;1.10;;
49828;SDS011;35723;51.194;5.112;2022-12-29T01:32:50;4.10;;;1.50;;
49828;SDS011;35723;51.194;5.112;2022-12-29T01:35:16;8.73;;;1.45;;
49828;SDS011;35723;51.194;5.112;2022-12-29T01:37:42;7.22;;;1.30;;
49828;SDS011;35723;51.194;5.112;2022-12-29T01:40:07;3.50;;;1.08;;
49828;SDS011;35723;51.194;5.112;2022-12-29T01:42:33;6.57;;;1.38;;
49828;SDS011;35723;51.194;5.112;2022-12-29T01:45:09;6.88;;;1.30;;
49828;SDS011;35723;51.194;5.112;2022-12-29T01:47:41;6.10;;;1.42;;
49828;SDS011;35723;51.194;5.112;2022-12-29T01:50:20;7.35;;;1.40;;
49828;SDS011;35723;51.194;5.112;2022-12-29T01:53:21;4.15;;;1.05;;
49828;SDS011;35723;51.194;5.112;2022-12-29T01:55:53;6.32;;;1.40;;
49828;SDS011;35723;51.194;5.112;2022-12-29T01:58:22;6.05;;;1.40;;
49828;SDS011;35723;51.194;5.112;2022-12-29T02:00:51;4.10;;;1.20;;
49828;SDS011;35723;51.194;5.112;2022-12-29T02:03:17;4.68;;;1.52;;
49828;SDS011;35723;51.194;5.112;2022-12-29T02:08:21;4.50;;;1.33;;
49828;SDS011;35723;51.194;5.112;2022-12-29T02:10:49;9.75;;;1.40;;
49828;SDS011;35723;51.194;5.112;2022-12-29T02:13:16;6.47;;;1.50;;
49828;SDS011;35723;51.194;5.112;2022-12-29T02:15:54;6.63;;;1.42;;
49828;SDS011;35723;51.194;5.112;2022-12-29T02:18:48;6.90;;;1.73;;
49828;SDS011;35723;51.194;5.112;2022-12-29T02:32:03;5.60;;;1.70;;
49828;SDS011;35723;51.194;5.112;2022-12-29T02:34:47;6.10;;;1.27;;
49828;SDS011;35723;51.194;5.112;2022-12-29T02:37:28;5.38;;;1.30;;
49828;SDS011;35723;51.194;5.112;2022-12-29T02:43:03;4.88;;;1.00;;
49828;SDS011;35723;51.194;5.112;2022-12-29T02:45:37;8.45;;;1.20;;
49828;SDS011;35723;51.194;5.112;2022-12-29T02:48:25;5.50;;;1.20;;
49828;SDS011;35723;51.194;5.112;2022-12-29T02:53:27;4.15;;;1.10;;
49828;SDS011;35723;51.194;5.112;2022-12-29T02:56:14;5.63;;;1.42;;
49828;SDS011;35723;51.194;5.112;2022-12-29T02:58:40;5.10;;;1.25;;
49828;SDS011;35723;51.194;5.112;2022-12-29T03:04:00;5.03;;;1.17;;
49828;SDS011;35723;51.194;5.112;2022-12-29T03:07:06;6.25;;;1.40;;
49828;SDS011;35723;51.194;5.112;2022-12-29T03:09:47;6.40;;;1.15;;
49828;SDS011;35723;51.194;5.112;2022-12-29T03:12:56;6.22;;;1.15;;
49828;SDS011;35723;51.194;5.112;2022-12-29T03:15:42;3.67;;;0.77;;
49828;SDS011;35723;51.194;5.112;2022-12-29T03:21:42;5.15;;;0.90;;
49828;SDS011;35723;51.194;5.112;2022-12-29T03:24:29;5.88;;;1.00;;
49828;SDS011;35723;51.194;5.112;2022-12-29T03:26:58;6.40;;;1.00;;
49828;SDS011;35723;51.194;5.112;2022-12-29T03:29:26;8.18;;;1.80;;
49828;SDS011;35723;51.194;5.112;2022-12-29T03:31:55;3.92;;;1.13;;
49828;SDS011;35723;51.194;5.112;2022-12-29T03:34:23;7.68;;;1.15;;
49828;SDS011;35723;51.194;5.112;2022-12-29T03:36:58;5.90;;;0.88;;
49828;SDS011;35723;51.194;5.112;2022-12-29T03:39:28;5.05;;;0.90;;
49828;SDS011;35723;51.194;5.112;2022-12-29T03:41:58;7.25;;;1.10;;
49828;SDS011;35723;51.194;5.112;2022-12-29T03:44:38;4.68;;;0.70;;
49828;SDS011;35723;51.194;5.112;2022-12-29T03:47:07;4.88;;;0.70;;
49828;SDS011;35723;51.194;5.112;2022-12-29T03:49:34;6.07;;;1.15;;
49828;SDS011;35723;51.194;5.112;2022-12-29T03:52:00;4.05;;;1.00;;
49828;SDS011;35723;51.194;5.112;2022-12-29T03:54:26;5.75;;;0.80;;
49828;SDS011;35723;51.194;5.112;2022-12-29T03:56:52;4.00;;;0.70;;
49828;SDS011;35723;51.194;5.112;2022-12-29T03:59:17;6.07;;;0.98;;
49828;SDS011;35723;51.194;5.112;2022-12-29T04:01:43;9.40;;;1.05;;
49828;SDS011;35723;51.194;5.112;2022-12-29T04:04:08;5.95;;;1.05;;
49828;SDS011;35723;51.194;5.112;2022-12-29T04:06:34;7.53;;;1.15;;
49828;SDS011;35723;51.194;5.112;2022-12-29T04:09:00;10.95;;;1.45;;
49828;SDS011;35723;51.194;5.112;2022-12-29T04:11:26;9.50;;;1.58;;
49828;SDS011;35723;51.194;5.112;2022-12-29T04:13:51;6.72;;;1.20;;
49828;SDS011;35723;51.194;5.112;2022-12-29T04:16:17;10.20;;;1.50;;
49828;SDS011;35723;51.194;5.112;2022-12-29T04:18:43;11.93;;;1.65;;
49828;SDS011;35723;51.194;5.112;2022-12-29T04:21:08;10.98;;;1.10;;
49828;SDS011;35723;51.194;5.112;2022-12-29T04:23:35;9.77;;;1.58;;
49828;SDS011;35723;51.194;5.112;2022-12-29T04:26:03;7.40;;;1.10;;
49828;SDS011;35723;51.194;5.112;2022-12-29T04:28:31;4.88;;;0.95;;
49828;SDS011;35723;51.194;5.112;2022-12-29T04:30:56;6.03;;;0.90;;
49828;SDS011;35723;51.194;5.112;2022-12-29T04:33:22;8.20;;;1.42;;
49828;SDS011;35723;51.194;5.112;2022-12-29T04:35:48;7.20;;;1.10;;
49828;SDS011;35723;51.194;5.112;2022-12-29T04:38:14;6.05;;;1.10;;
49828;SDS011;35723;51.194;5.112;2022-12-29T04:40:41;6.70;;;1.17;;
49828;SDS011;35723;51.194;5.112;2022-12-29T04:43:08;6.20;;;1.00;;
49828;SDS011;35723;51.194;5.112;2022-12-29T04:45:34;3.67;;;0.90;;
49828;SDS011;35723;51.194;5.112;2022-12-29T04:47:59;8.35;;;1.02;;
49828;SDS011;35723;51.194;5.112;2022-12-29T04:50:25;6.75;;;1.20;;
49828;SDS011;35723;51.194;5.112;2022-12-29T04:52:51;7.65;;;1.10;;
49828;SDS011;35723;51.194;5.112;2022-12-29T04:55:16;3.28;;;0.90;;
49828;SDS011;35723;51.194;5.112;2022-12-29T04:57:42;8.35;;;1.33;;
49828;SDS011;35723;51.194;5.112;2022-12-29T05:00:08;8.90;;;1.00;;
49828;SDS011;35723;51.194;5.112;2022-12-29T05:02:34;12.23;;;1.65;;
49828;SDS011;35723;51.194;5.112;2022-12-29T05:05:00;7.07;;;1.02;;
49828;SDS011;35723;51.194;5.112;2022-12-29T05:07:26;8.65;;;1.17;;
49828;SDS011;35723;51.194;5.112;2022-12-29T05:09:52;8.82;;;1.60;;
49828;SDS011;35723;51.194;5.112;2022-12-29T05:12:17;6.35;;;1.10;;
49828;SDS011;35723;51.194;5.112;2022-12-29T05:14:43;9.40;;;1.30;;
49828;SDS011;35723;51.194;5.112;2022-12-29T05:17:09;7.22;;;1.20;;
49828;SDS011;35723;51.194;5.112;2022-12-29T05:19:34;6.25;;;1.33;;
49828;SDS011;35723;51.194;5.112;2022-12-29T05:22:00;8.15;;;1.58;;
49828;SDS011;35723;51.194;5.112;2022-12-29T05:24:25;9.52;;;1.23;;
49828;SDS011;35723;51.194;5.112;2022-12-29T05:26:51;10.95;;;1.50;;
49828;SDS011;35723;51.194;5.112;2022-12-29T05:29:17;11.35;;;1.70;;
49828;SDS011;35723;51.194;5.112;2022-12-29T05:31:42;9.60;;;1.10;;
49828;SDS011;35723;51.194;5.112;2022-12-29T05:34:10;7.78;;;1.30;;
49828;SDS011;35723;51.194;5.112;2022-12-29T05:36:36;4.40;;;1.15;;
49828;SDS011;35723;51.194;5.112;2022-12-29T05:39:02;6.47;;;1.35;;
49828;SDS011;35723;51.194;5.112;2022-12-29T05:41:28;11.80;;;1.60;;
49828;SDS011;35723;51.194;5.112;2022-12-29T05:43:53;11.05;;;1.50;;
49828;SDS011;35723;51.194;5.112;2022-12-29T05:46:19;8.05;;;1.40;;
49828;SDS011;35723;51.194;5.112;2022-12-29T05:48:45;6.75;;;1.42;;
49828;SDS011;35723;51.194;5.112;2022-12-29T05:51:10;10.10;;;1.55;;
49828;SDS011;35723;51.194;5.112;2022-12-29T05:53:36;9.98;;;1.55;;
49828;SDS011;35723;51.194;5.112;2022-12-29T05:56:01;8.38;;;2.05;;
49828;SDS011;35723;51.194;5.112;2022-12-29T05:58:27;9.15;;;1.40;;
49828;SDS011;35723;51.194;5.112;2022-12-29T06:00:53;8.65;;;1.63;;
49828;SDS011;35723;51.194;5.112;2022-12-29T06:03:18;9.02;;;1.45;;
49828;SDS011;35723;51.194;5.112;2022-12-29T06:05:47;9.13;;;1.42;;
49828;SDS011;35723;51.194;5.112;2022-12-29T06:08:13;13.02;;;1.73;;
49828;SDS011;35723;51.194;5.112;2022-12-29T06:10:38;8.23;;;1.48;;
49828;SDS011;35723;51.194;5.112;2022-12-29T06:13:04;10.63;;;1.52;;
49828;SDS011;35723;51.194;5.112;2022-12-29T06:15:31;8.70;;;1.48;;
49828;SDS011;35723;51.194;5.112;2022-12-29T06:17:57;9.68;;;1.48;;
49828;SDS011;35723;51.194;5.112;2022-12-29T06:20:23;14.82;;;2.17;;
49828;SDS011;35723;51.194;5.112;2022-12-29T06:22:48;10.32;;;1.67;;
49828;SDS011;35723;51.194;5.112;2022-12-29T06:25:14;9.25;;;1.58;;
49828;SDS011;35723;51.194;5.112;2022-12-29T06:27:41;13.13;;;1.83;;
49828;SDS011;35723;51.194;5.112;2022-12-29T06:30:07;10.00;;;1.50;;
49828;SDS011;35723;51.194;5.112;2022-12-29T06:32:34;12.65;;;1.80;;
49828;SDS011;35723;51.194;5.112;2022-12-29T06:35:00;12.27;;;1.52;;
49828;SDS011;35723;51.194;5.112;2022-12-29T06:37:26;14.52;;;1.83;;
49828;SDS011;35723;51.194;5.112;2022-12-29T06:39:52;10.05;;;1.80;;
49828;SDS011;35723;51.194;5.112;2022-12-29T06:42:17;14.65;;;2.00;;
49828;SDS011;35723;51.194;5.112;2022-12-29T06:44:43;12.05;;;1.60;;
49828;SDS011;35723;51.194;5.112;2022-12-29T06:47:09;15.85;;;1.80;;
49828;SDS011;35723;51.194;5.112;2022-12-29T06:49:34;10.25;;;1.50;;
49828;SDS011;35723;51.194;5.112;2022-12-29T06:52:00;13.32;;;2.47;;
49828;SDS011;35723;51.194;5.112;2022-12-29T06:54:29;10.75;;;2.17;;
49828;SDS011;35723;51.194;5.112;2022-12-29T06:56:55;14.77;;;2.40;;
49828;SDS011;35723;51.194;5.112;2022-12-29T06:59:21;15.18;;;1.80;;
49828;SDS011;35723;51.194;5.112;2022-12-29T07:01:47;11.40;;;1.80;;
49828;SDS011;35723;51.194;5.112;2022-12-29T07:04:13;14.43;;;1.83;;
49828;SDS011;35723;51.194;5.112;2022-12-29T07:06:38;11.02;;;1.75;;
49828;SDS011;35723;51.194;5.112;2022-12-29T07:09:05;12.23;;;1.90;;
49828;SDS011;35723;51.194;5.112;2022-12-29T07:11:32;13.30;;;1.80;;
49828;SDS011;35723;51.194;5.112;2022-12-29T07:13:58;16.05;;;2.20;;
49828;SDS011;35723;51.194;5.112;2022-12-29T07:16:24;14.13;;;2.25;;
49828;SDS011;35723;51.194;5.112;2022-12-29T07:18:49;13.98;;;1.98;;
49828;SDS011;35723;51.194;5.112;2022-12-29T07:21:16;17.65;;;2.45;;
49828;SDS011;35723;51.194;5.112;2022-12-29T07:23:42;14.07;;;2.53;;
49828;SDS011;35723;51.194;5.112;2022-12-29T07:26:09;13.30;;;2.00;;
49828;SDS011;35723;51.194;5.112;2022-12-29T07:28:37;13.52;;;1.98;;
49828;SDS011;35723;51.194;5.112;2022-12-29T07:31:03;11.50;;;1.98;;
49828;SDS011;35723;51.194;5.112;2022-12-29T07:33:31;14.30;;;2.05;;
49828;SDS011;35723;51.194;5.112;2022-12-29T07:35:58;13.98;;;1.92;;
49828;SDS011;35723;51.194;5.112;2022-12-29T07:38:24;12.75;;;2.40;;
49828;SDS011;35723;51.194;5.112;2022-12-29T07:40:49;16.63;;;2.15;;
49828;SDS011;35723;51.194;5.112;2022-12-29T07:43:15;12.82;;;1.98;;
49828;SDS011;35723;51.194;5.112;2022-12-29T07:45:41;11.38;;;2.05;;
49828;SDS011;35723;51.194;5.112;2022-12-29T07:48:07;12.18;;;2.00;;
49828;SDS011;35723;51.194;5.112;2022-12-29T07:50:36;10.77;;;1.70;;
49828;SDS011;35723;51.194;5.112;2022-12-29T07:53:02;15.68;;;2.05;;
49828;SDS011;35723;51.194;5.112;2022-12-29T07:55:28;12.95;;;1.83;;
49828;SDS011;35723;51.194;5.112;2022-12-29T07:57:54;18.48;;;2.05;;
49828;SDS011;35723;51.194;5.112;2022-12-29T08:00:20;17.15;;;2.17;;
49828;SDS011;35723;51.194;5.112;2022-12-29T08:02:46;11.95;;;1.95;;
49828;SDS011;35723;51.194;5.112;2022-12-29T08:05:12;17.52;;;2.47;;
49828;SDS011;35723;51.194;5.112;2022-12-29T08:07:38;18.23;;;2.33;;
49828;SDS011;35723;51.194;5.112;2022-12-29T08:10:03;15.23;;;2.63;;
49828;SDS011;35723;51.194;5.112;2022-12-29T08:12:30;17.40;;;2.33;;
49828;SDS011;35723;51.194;5.112;2022-12-29T08:14:56;17.20;;;2.60;;
49828;SDS011;35723;51.194;5.112;2022-12-29T08:17:22;13.05;;;2.25;;
49828;SDS011;35723;51.194;5.112;2022-12-29T08:19:47;18.13;;;2.42;;
49828;SDS011;35723;51.194;5.112;2022-12-29T08:22:13;15.38;;;2.08;;
49828;SDS011;35723;51.194;5.112;2022-12-29T08:24:39;15.90;;;2.22;;
49828;SDS011;35723;51.194;5.112;2022-12-29T08:27:05;16.58;;;2.28;;
49828;SDS011;35723;51.194;5.112;2022-12-29T08:29:30;15.07;;;2.53;;
49828;SDS011;35723;51.194;5.112;2022-12-29T08:31:56;10.73;;;1.67;;
49828;SDS011;35723;51.194;5.112;2022-12-29T08:34:22;12.13;;;2.00;;
49828;SDS011;35723;51.194;5.112;2022-12-29T08:36:47;17.90;;;2.38;;
49828;SDS011;35723;51.194;5.112;2022-12-29T08:39:13;20.15;;;2.40;;
49828;SDS011;35723;51.194;5.112;2022-12-29T08:41:39;16.50;;;1.95;;
49828;SDS011;35723;51.194;5.112;2022-12-29T08:44:05;14.15;;;2.28;;
49828;SDS011;35723;51.194;5.112;2022-12-29T08:46:30;13.00;;;2.00;;
49828;SDS011;35723;51.194;5.112;2022-12-29T08:48:56;15.48;;;2.15;;
49828;SDS011;35723;51.194;5.112;2022-12-29T08:51:22;14.38;;;2.05;;
49828;SDS011;35723;51.194;5.112;2022-12-29T08:53:48;14.32;;;2.10;;
49828;SDS011;35723;51.194;5.112;2022-12-29T08:56:13;15.80;;;2.10;;
49828;SDS011;35723;51.194;5.112;2022-12-29T08:58:39;16.60;;;2.88;;
49828;SDS011;35723;51.194;5.112;2022-12-29T09:01:05;16.27;;;2.45;;
49828;SDS011;35723;51.194;5.112;2022-12-29T09:03:31;15.57;;;2.47;;
49828;SDS011;35723;51.194;5.112;2022-12-29T09:05:57;16.45;;;2.58;;
49828;SDS011;35723;51.194;5.112;2022-12-29T09:08:23;14.35;;;2.20;;
49828;SDS011;35723;51.194;5.112;2022-12-29T09:10:49;15.75;;;2.47;;
49828;SDS011;35723;51.194;5.112;2022-12-29T09:13:15;20.85;;;2.05;;
49828;SDS011;35723;51.194;5.112;2022-12-29T09:15:42;12.82;;;2.13;;
49828;SDS011;35723;51.194;5.112;2022-12-29T09:18:09;18.92;;;2.60;;
49828;SDS011;35723;51.194;5.112;2022-12-29T09:20:36;18.02;;;2.30;;
49828;SDS011;35723;51.194;5.112;2022-12-29T09:23:02;12.85;;;2.08;;
49828;SDS011;35723;51.194;5.112;2022-12-29T09:25:28;16.98;;;2.40;;
49828;SDS011;35723;51.194;5.112;2022-12-29T09:27:54;18.17;;;2.22;;
49828;SDS011;35723;51.194;5.112;2022-12-29T09:30:21;17.80;;;2.40;;
49828;SDS011;35723;51.194;5.112;2022-12-29T09:32:48;18.58;;;2.30;;
49828;SDS011;35723;51.194;5.112;2022-12-29T09:35:14;16.50;;;2.22;;
49828;SDS011;35723;51.194;5.112;2022-12-29T09:37:41;18.40;;;3.03;;
49828;SDS011;35723;51.194;5.112;2022-12-29T09:40:07;21.05;;;2.55;;
49828;SDS011;35723;51.194;5.112;2022-12-29T09:45:47;17.02;;;1.98;;
49828;SDS011;35723;51.194;5.112;2022-12-29T09:48:34;17.25;;;2.50;;
49828;SDS011;35723;51.194;5.112;2022-12-29T09:51:11;13.80;;;2.15;;
49828;SDS011;35723;51.194;5.112;2022-12-29T09:53:42;18.65;;;2.35;;
49828;SDS011;35723;51.194;5.112;2022-12-29T09:56:17;18.48;;;2.33;;
49828;SDS011;35723;51.194;5.112;2022-12-29T10:01:44;15.63;;;2.30;;
49828;SDS011;35723;51.194;5.112;2022-12-29T10:04:14;17.75;;;2.30;;
49828;SDS011;35723;51.194;5.112;2022-12-29T10:06:50;22.13;;;2.42;;
49828;SDS011;35723;51.194;5.112;2022-12-29T10:09:32;14.60;;;2.40;;
49828;SDS011;35723;51.194;5.112;2022-12-29T10:15:18;16.77;;;2.22;;
49828;SDS011;35723;51.194;5.112;2022-12-29T10:18:08;16.67;;;2.75;;
49828;SDS011;35723;51.194;5.112;2022-12-29T10:23:40;16.65;;;2.63;;
49828;SDS011;35723;51.194;5.112;2022-12-29T10:26:20;18.77;;;2.83;;
49828;SDS011;35723;51.194;5.112;2022-12-29T10:28:53;14.93;;;2.13;;
49828;SDS011;35723;51.194;5.112;2022-12-29T10:31:23;21.05;;;2.67;;
49828;SDS011;35723;51.194;5.112;2022-12-29T10:33:56;18.08;;;2.20;;
49828;SDS011;35723;51.194;5.112;2022-12-29T10:36:32;14.10;;;2.45;;
49828;SDS011;35723;51.194;5.112;2022-12-29T10:39:13;18.13;;;2.58;;
49828;SDS011;35723;51.194;5.112;2022-12-29T10:44:31;16.23;;;2.75;;
49828;SDS011;35723;51.194;5.112;2022-12-29T10:47:01;15.70;;;2.42;;
49828;SDS011;35723;51.194;5.112;2022-12-29T10:49:31;19.33;;;2.65;;
49828;SDS011;35723;51.194;5.112;2022-12-29T10:52:00;20.95;;;2.67;;
49828;SDS011;35723;51.194;5.112;2022-12-29T10:59:42;13.95;;;2.45;;
49828;SDS011;35723;51.194;5.112;2022-12-29T11:07:20;14.57;;;2.33;;
49828;SDS011;35723;51.194;5.112;2022-12-29T11:09:46;18.42;;;2.55;;
49828;SDS011;35723;51.194;5.112;2022-12-29T11:14:44;15.75;;;2.75;;
49828;SDS011;35723;51.194;5.112;2022-12-29T11:17:12;17.42;;;2.72;;
49828;SDS011;35723;51.194;5.112;2022-12-29T11:19:40;15.52;;;2.55;;
49828;SDS011;35723;51.194;5.112;2022-12-29T11:22:25;20.05;;;2.83;;
49828;SDS011;35723;51.194;5.112;2022-12-29T11:24:54;21.48;;;2.78;;
49828;SDS011;35723;51.194;5.112;2022-12-29T11:27:30;12.85;;;2.40;;
49828;SDS011;35723;51.194;5.112;2022-12-29T11:29:55;15.63;;;2.58;;
49828;SDS011;35723;51.194;5.112;2022-12-29T11:32:22;16.58;;;2.42;;
49828;SDS011;35723;51.194;5.112;2022-12-29T11:34:50;18.67;;;2.58;;
49828;SDS011;35723;51.194;5.112;2022-12-29T11:37:27;20.35;;;2.58;;
49828;SDS011;35723;51.194;5.112;2022-12-29T11:42:35;17.98;;;2.70;;
49828;SDS011;35723;51.194;5.112;2022-12-29T11:45:23;15.55;;;2.67;;
49828;SDS011;35723;51.194;5.112;2022-12-29T11:47:57;17.42;;;2.75;;
49828;SDS011;35723;51.194;5.112;2022-12-29T11:50:32;13.57;;;2.33;;
49828;SDS011;35723;51.194;5.112;2022-12-29T11:55:29;16.40;;;2.25;;
49828;SDS011;35723;51.194;5.112;2022-12-29T11:57:56;17.30;;;2.10;;
49828;SDS011;35723;51.194;5.112;2022-12-29T12:00:26;19.50;;;2.60;;
49828;SDS011;35723;51.194;5.112;2022-12-29T12:02:58;17.98;;;2.97;;
49828;SDS011;35723;51.194;5.112;2022-12-29T12:05:28;14.38;;;2.63;;
49828;SDS011;35723;51.194;5.112;2022-12-29T12:10:48;17.38;;;2.95;;
49828;SDS011;35723;51.194;5.112;2022-12-29T12:13:25;15.25;;;2.80;;
49828;SDS011;35723;51.194;5.112;2022-12-29T12:16:21;18.50;;;2.60;;
49828;SDS011;35723;51.194;5.112;2022-12-29T12:21:43;17.48;;;2.78;;
49828;SDS011;35723;51.194;5.112;2022-12-29T12:27:03;14.93;;;2.72;;
49828;SDS011;35723;51.194;5.112;2022-12-29T12:30:09;16.00;;;2.65;;
49828;SDS011;35723;51.194;5.112;2022-12-29T12:35:11;16.05;;;2.58;;
49828;SDS011;35723;51.194;5.112;2022-12-29T12:38:13;15.52;;;2.55;;
49828;SDS011;35723;51.194;5.112;2022-12-29T12:41:33;18.67;;;2.58;;
49828;SDS011;35723;51.194;5.112;2022-12-29T13:00:17;17.45;;;2.67;;
49828;SDS011;35723;51.194;5.112;2022-12-29T13:05:29;13.85;;;2.60;;
49828;SDS011;35723;51.194;5.112;2022-12-29T13:08:28;16.90;;;2.60;;
49828;SDS011;35723;51.194;5.112;2022-12-29T13:11:22;22.20;;;2.97;;
49828;SDS011;35723;51.194;5.112;2022-12-29T13:27:49;18.27;;;2.85;;
49828;SDS011;35723;51.194;5.112;2022-12-29T13:30:32;18.23;;;2.60;;
49828;SDS011;35723;51.194;5.112;2022-12-29T13:33:46;17.80;;;2.42;;
49828;SDS011;35723;51.194;5.112;2022-12-29T13:36:22;19.40;;;2.72;;
49828;SDS011;35723;51.194;5.112;2022-12-29T13:39:04;20.40;;;2.67;;
49828;SDS011;35723;51.194;5.112;2022-12-29T13:41:37;13.55;;;2.40;;
49828;SDS011;35723;51.194;5.112;2022-12-29T13:44:07;16.17;;;2.60;;
49828;SDS011;35723;51.194;5.112;2022-12-29T13:46:42;19.73;;;2.88;;
49828;SDS011;35723;51.194;5.112;2022-12-29T13:55:18;19.73;;;2.63;;
49828;SDS011;35723;51.194;5.112;2022-12-29T14:00:11;18.70;;;3.00;;
49828;SDS011;35723;51.194;5.112;2022-12-29T14:07:48;14.70;;;2.50;;
49828;SDS011;35723;51.194;5.112;2022-12-29T14:10:29;15.63;;;2.95;;
49828;SDS011;35723;51.194;5.112;2022-12-29T14:15:46;19.58;;;3.38;;
49828;SDS011;35723;51.194;5.112;2022-12-29T14:18:26;21.27;;;3.40;;
49828;SDS011;35723;51.194;5.112;2022-12-29T14:20:56;19.77;;;3.20;;
49828;SDS011;35723;51.194;5.112;2022-12-29T14:23:44;18.73;;;2.90;;
49828;SDS011;35723;51.194;5.112;2022-12-29T14:29:15;17.80;;;2.60;;
49828;SDS011;35723;51.194;5.112;2022-12-29T14:31:48;16.90;;;2.65;;
49828;SDS011;35723;51.194;5.112;2022-12-29T14:44:45;15.65;;;2.78;;
49828;SDS011;35723;51.194;5.112;2022-12-29T14:47:22;15.15;;;2.50;;
49828;SDS011;35723;51.194;5.112;2022-12-29T14:50:06;19.40;;;2.70;;
49828;SDS011;35723;51.194;5.112;2022-12-29T14:55:30;15.43;;;3.10;;
49828;SDS011;35723;51.194;5.112;2022-12-29T14:58:05;15.80;;;2.78;;
49828;SDS011;35723;51.194;5.112;2022-12-29T15:00:40;21.00;;;3.00;;
49828;SDS011;35723;51.194;5.112;2022-12-29T15:05:48;14.23;;;2.20;;
49828;SDS011;35723;51.194;5.112;2022-12-29T15:08:33;13.20;;;2.45;;
49828;SDS011;35723;51.194;5.112;2022-12-29T15:14:01;12.63;;;2.53;;
49828;SDS011;35723;51.194;5.112;2022-12-29T15:18:57;12.23;;;2.38;;
49828;SDS011;35723;51.194;5.112;2022-12-29T15:21:25;10.95;;;2.28;;
49828;SDS011;35723;51.194;5.112;2022-12-29T15:23:55;13.05;;;2.42;;
49828;SDS011;35723;51.194;5.112;2022-12-29T15:26:21;10.30;;;2.20;;
49828;SDS011;35723;51.194;5.112;2022-12-29T15:28:48;12.20;;;2.40;;
49828;SDS011;35723;51.194;5.112;2022-12-29T15:33:53;10.73;;;1.90;;
49828;SDS011;35723;51.194;5.112;2022-12-29T15:36:21;8.40;;;1.70;;
49828;SDS011;35723;51.194;5.112;2022-12-29T15:38:51;9.30;;;2.15;;
49828;SDS011;35723;51.194;5.112;2022-12-29T15:41:36;8.07;;;1.45;;
49828;SDS011;35723;51.194;5.112;2022-12-29T15:47:11;7.38;;;1.60;;
49828;SDS011;35723;51.194;5.112;2022-12-29T15:49:41;8.93;;;1.90;;
49828;SDS011;35723;51.194;5.112;2022-12-29T15:52:08;9.93;;;1.65;;
49828;SDS011;35723;51.194;5.112;2022-12-29T15:54:34;10.32;;;1.70;;
49828;SDS011;35723;51.194;5.112;2022-12-29T15:57:02;9.43;;;1.80;;
49828;SDS011;35723;51.194;5.112;2022-12-29T15:59:29;6.80;;;1.90;;
49828;SDS011;35723;51.194;5.112;2022-12-29T16:01:59;13.38;;;2.50;;
49828;SDS011;35723;51.194;5.112;2022-12-29T16:04:27;9.00;;;1.73;;
49828;SDS011;35723;51.194;5.112;2022-12-29T16:07:01;18.60;;;2.30;;
49828;SDS011;35723;51.194;5.112;2022-12-29T16:12:01;17.65;;;2.55;;
49828;SDS011;35723;51.194;5.112;2022-12-29T16:14:32;15.75;;;2.33;;
49828;SDS011;35723;51.194;5.112;2022-12-29T16:17:03;13.35;;;2.38;;
49828;SDS011;35723;51.194;5.112;2022-12-29T16:19:36;14.88;;;2.42;;
49828;SDS011;35723;51.194;5.112;2022-12-29T16:22:09;15.52;;;2.67;;
49828;SDS011;35723;51.194;5.112;2022-12-29T16:24:37;17.98;;;3.00;;
49828;SDS011;35723;51.194;5.112;2022-12-29T16:29:30;19.40;;;2.63;;
49828;SDS011;35723;51.194;5.112;2022-12-29T16:31:57;19.48;;;2.85;;
49828;SDS011;35723;51.194;5.112;2022-12-29T16:34:33;20.08;;;2.80;;
49828;SDS011;35723;51.194;5.112;2022-12-29T16:40:48;16.38;;;2.60;;
49828;SDS011;35723;51.194;5.112;2022-12-29T16:42:53;17.35;;;3.08;;
49828;SDS011;35723;51.194;5.112;2022-12-29T16:47:48;23.67;;;3.55;;
49828;SDS011;35723;51.194;5.112;2022-12-29T16:50:35;22.98;;;4.43;;
49828;SDS011;35723;51.194;5.112;2022-12-29T16:53:24;21.75;;;3.25;;
49828;SDS011;35723;51.194;5.112;2022-12-29T16:55:57;20.50;;;2.92;;
49828;SDS011;35723;51.194;5.112;2022-12-29T16:58:28;17.30;;;2.80;;
49828;SDS011;35723;51.194;5.112;2022-12-29T17:00:56;19.98;;;3.60;;
49828;SDS011;35723;51.194;5.112;2022-12-29T17:03:24;21.67;;;3.78;;
49828;SDS011;35723;51.194;5.112;2022-12-29T17:06:04;14.43;;;3.03;;
49828;SDS011;35723;51.194;5.112;2022-12-29T17:08:40;18.20;;;3.50;;
49828;SDS011;35723;51.194;5.112;2022-12-29T17:11:13;19.63;;;3.60;;
49828;SDS011;35723;51.194;5.112;2022-12-29T17:14:10;25.35;;;4.57;;
49828;SDS011;35723;51.194;5.112;2022-12-29T17:16:47;19.92;;;4.05;;
49828;SDS011;35723;51.194;5.112;2022-12-29T17:19:17;21.45;;;3.90;;
49828;SDS011;35723;51.194;5.112;2022-12-29T17:21:44;20.73;;;4.28;;
49828;SDS011;35723;51.194;5.112;2022-12-29T17:24:17;26.95;;;5.45;;
49828;SDS011;35723;51.194;5.112;2022-12-29T17:26:54;16.50;;;3.85;;
49828;SDS011;35723;51.194;5.112;2022-12-29T17:29:36;22.58;;;5.30;;
49828;SDS011;35723;51.194;5.112;2022-12-29T17:32:03;20.30;;;4.43;;
49828;SDS011;35723;51.194;5.112;2022-12-29T17:34:32;18.33;;;4.00;;
49828;SDS011;35723;51.194;5.112;2022-12-29T17:36:58;24.67;;;5.07;;
49828;SDS011;35723;51.194;5.112;2022-12-29T17:39:23;16.92;;;3.90;;
49828;SDS011;35723;51.194;5.112;2022-12-29T17:41:49;20.27;;;4.28;;